Time;durP1;ratioP1;P1;durP2;ratioP2;P2;SDS_P1;SDS_P2;PMS_P1;PMS_P2;Temp;Humidity;BMP_temperature;BMP_pressure;BME280_temperature;BME280_humidity;BME280_pressure;Samples;Min_cycle;Max_cycle;Signal;HPM_P1;HPM_P2
2022/04/23 00:01:16;;;;;;;9.07;7.03;;;;;;;;;;5011065;28;20213;-70
2022/04/23 00:03:41;;;;;;;8.87;6.33;;;;;;;;;;5009618;28;20261;-70
2022/04/23 00:06:07;;;;;;;8.30;7.33;;;;;;;;;;5010667;28;20190;-70
2022/04/23 00:08:32;;;;;;;8.37;7.47;;;;;;;;;;5009854;28;20186;-70
2022/04/23 00:10:58;;;;;;;11.27;8.03;;;;;;;;;;5007262;28;20221;-70
2022/04/23 00:13:24;;;;;;;10.73;7.70;;;;;;;;;;5003730;28;20179;-70
2022/04/23 00:15:49;;;;;;;8.33;7.50;;;;;;;;;;5005106;28;20175;-70
2022/04/23 00:18:14;;;;;;;8.43;7.10;;;;;;;;;;5010233;28;20258;-71
2022/04/23 00:20:39;;;;;;;10.87;7.47;;;;;;;;;;5010578;28;20696;-70
2022/04/23 00:23:05;;;;;;;12.60;7.93;;;;;;;;;;5011661;28;20194;-70
2022/04/23 00:25:31;;;;;;;8.87;6.60;;;;;;;;;;5006727;28;20194;-72
2022/04/23 00:27:56;;;;;;;9.30;8.07;;;;;;;;;;5008364;28;20210;-71
2022/04/23 00:30:21;;;;;;;8.53;7.63;;;;;;;;;;5010974;28;20657;-69
2022/04/23 00:32:47;;;;;;;9.17;7.90;;;;;;;;;;5007320;28;20200;-71
2022/04/23 00:35:16;;;;;;;7.93;7.13;;;;;;;;;;5010691;28;20206;-71
2022/04/23 00:37:41;;;;;;;10.73;7.73;;;;;;;;;;5004242;28;20186;-71
2022/04/23 00:40:07;;;;;;;10.33;8.37;;;;;;;;;;5002270;28;20199;-71
2022/04/23 00:42:44;;;;;;;11.37;8.30;;;;;;;;;;5009370;28;20213;-71
2022/04/23 00:45:09;;;;;;;9.80;8.60;;;;;;;;;;5007998;28;20209;-71
2022/04/23 00:47:35;;;;;;;9.80;8.63;;;;;;;;;;5007556;28;20210;-71
2022/04/23 00:50:00;;;;;;;10.30;8.70;;;;;;;;;;5009370;28;20297;-71
2022/04/23 00:52:25;;;;;;;9.60;8.60;;;;;;;;;;5009401;28;20657;-69
2022/04/23 00:54:50;;;;;;;14.07;8.80;;;;;;;;;;5005746;28;20665;-72
2022/04/23 00:57:16;;;;;;;12.33;10.33;;;;;;;;;;5010069;28;20171;-72
2022/04/23 00:59:41;;;;;;;10.93;9.30;;;;;;;;;;5008418;28;20190;-69
2022/04/23 01:02:07;;;;;;;12.53;9.27;;;;;;;;;;5009945;28;20217;-71
2022/04/23 01:04:33;;;;;;;13.87;9.47;;;;;;;;;;5006952;28;20209;-71
2022/04/23 01:06:59;;;;;;;10.67;9.03;;;;;;;;;;5011025;28;20175;-71
2022/04/23 01:09:24;;;;;;;9.47;8.50;;;;;;;;;;5009613;28;20237;-71
2022/04/23 01:11:50;;;;;;;11.73;9.40;;;;;;;;;;5007555;28;20941;-71
2022/04/23 01:14:18;;;;;;;11.30;9.37;;;;;;;;;;5008588;28;20203;-69
2022/04/23 01:16:43;;;;;;;12.07;9.97;;;;;;;;;;5006017;28;20667;-71
2022/04/23 01:19:08;;;;;;;12.63;10.33;;;;;;;;;;5010706;28;20175;-71
2022/04/23 01:21:34;;;;;;;13.83;10.67;;;;;;;;;;5014416;28;20238;-71
2022/04/23 01:23:59;;;;;;;11.23;9.77;;;;;;;;;;5013798;28;20187;-70
2022/04/23 01:26:28;;;;;;;12.83;10.00;;;;;;;;;;5014967;28;20241;-71
2022/04/23 01:28:54;;;;;;;16.13;10.47;;;;;;;;;;5013581;28;20175;-71
2022/04/23 01:31:19;;;;;;;13.20;11.20;;;;;;;;;;5013220;28;20695;-71
2022/04/23 01:33:44;;;;;;;18.10;11.57;;;;;;;;;;5014112;28;20256;-71
2022/04/23 01:36:12;;;;;;;13.60;11.10;;;;;;;;;;5010944;28;20175;-72
2022/04/23 01:38:37;;;;;;;14.30;11.60;;;;;;;;;;5012297;28;20206;-72
2022/04/23 01:41:02;;;;;;;13.27;11.73;;;;;;;;;;5010223;28;20233;-71
2022/04/23 01:43:27;;;;;;;15.53;12.20;;;;;;;;;;5005928;28;20249;-71
2022/04/23 01:45:52;;;;;;;16.30;12.57;;;;;;;;;;5011696;28;20175;-71
2022/04/23 01:48:18;;;;;;;12.50;11.20;;;;;;;;;;5008197;28;20179;-71
2022/04/23 01:50:43;;;;;;;13.93;11.40;;;;;;;;;;5006794;28;20199;-71
2022/04/23 01:53:08;;;;;;;17.23;12.53;;;;;;;;;;5005985;28;20186;-71
2022/04/23 01:55:33;;;;;;;14.50;12.13;;;;;;;;;;5008354;28;20271;-71
2022/04/23 01:57:58;;;;;;;15.70;12.23;;;;;;;;;;5006454;28;20194;-72
2022/04/23 02:00:24;;;;;;;16.17;13.70;;;;;;;;;;5013316;28;20222;-71
2022/04/23 02:02:49;;;;;;;15.97;12.40;;;;;;;;;;5010512;28;20210;-71
2022/04/23 02:05:14;;;;;;;15.13;13.00;;;;;;;;;;5007351;28;20180;-70
2022/04/23 02:07:40;;;;;;;16.63;13.53;;;;;;;;;;5009061;28;20179;-70
2022/04/23 02:10:07;;;;;;;14.03;12.53;;;;;;;;;;5005471;28;20269;-70
2022/04/23 02:12:32;;;;;;;16.20;12.90;;;;;;;;;;5012671;28;20218;-70
2022/04/23 02:14:57;;;;;;;15.87;12.60;;;;;;;;;;5012805;28;20262;-70
2022/04/23 02:17:22;;;;;;;15.30;13.40;;;;;;;;;;5007260;28;20266;-70
2022/04/23 02:19:47;;;;;;;16.97;13.50;;;;;;;;;;5012161;28;20210;-70
2022/04/23 02:22:13;;;;;;;16.27;13.40;;;;;;;;;;5008745;28;20211;-70
2022/04/23 02:24:38;;;;;;;15.53;13.30;;;;;;;;;;5012958;28;20771;-71
2022/04/23 02:27:03;;;;;;;21.27;15.33;;;;;;;;;;5010159;28;20270;-70
2022/04/23 02:29:28;;;;;;;17.83;14.63;;;;;;;;;;5009663;28;20181;-70
2022/04/23 02:31:53;;;;;;;18.13;15.30;;;;;;;;;;5012086;28;20289;-70
2022/04/23 02:34:21;;;;;;;16.53;13.77;;;;;;;;;;5013350;28;20320;-70
2022/04/23 02:36:47;;;;;;;17.40;14.63;;;;;;;;;;5012503;28;20186;-70
2022/04/23 02:39:12;;;;;;;20.23;14.87;;;;;;;;;;5010947;28;20549;-71
2022/04/23 02:41:37;;;;;;;19.47;14.77;;;;;;;;;;5012702;28;20203;-71
2022/04/23 02:44:03;;;;;;;17.40;15.17;;;;;;;;;;5012222;28;20526;-71
2022/04/23 02:46:28;;;;;;;19.23;14.90;;;;;;;;;;5011851;28;20234;-71
2022/04/23 02:48:55;;;;;;;17.30;15.40;;;;;;;;;;5014775;28;20174;-71
2022/04/23 02:51:20;;;;;;;18.97;15.20;;;;;;;;;;5010268;28;20201;-71
2022/04/23 02:53:46;;;;;;;18.43;15.10;;;;;;;;;;5012805;28;20175;-71
2022/04/23 02:56:13;;;;;;;18.20;15.47;;;;;;;;;;5011973;28;20182;-71
2022/04/23 02:58:38;;;;;;;20.37;14.83;;;;;;;;;;5008277;28;20530;-71
2022/04/23 03:01:04;;;;;;;20.67;15.20;;;;;;;;;;5008958;28;20306;-71
2022/04/23 03:03:29;;;;;;;17.63;15.50;;;;;;;;;;5011587;28;20186;-71
2022/04/23 03:05:55;;;;;;;17.27;15.17;;;;;;;;;;5013244;28;20664;-71
2022/04/23 03:08:23;;;;;;;21.03;16.33;;;;;;;;;;5008950;28;20175;-70
2022/04/23 03:10:48;;;;;;;18.67;15.23;;;;;;;;;;5006758;28;20201;-70
2022/04/23 03:13:14;;;;;;;17.97;15.97;;;;;;;;;;5010402;28;20182;-71
2022/04/23 03:15:39;;;;;;;22.50;16.90;;;;;;;;;;5011740;28;20182;-70
2022/04/23 03:18:12;;;;;;;21.10;16.73;;;;;;;;;;5010226;28;20241;-70
2022/04/23 03:20:38;;;;;;;20.57;16.30;;;;;;;;;;5012000;28;20206;-70
2022/04/23 03:23:03;;;;;;;19.93;17.77;;;;;;;;;;5009899;28;20207;-70
2022/04/23 03:25:28;;;;;;;20.03;16.67;;;;;;;;;;5012058;28;20175;-71
2022/04/23 03:27:55;;;;;;;21.20;18.03;;;;;;;;;;5011240;28;20714;-71
2022/04/23 03:30:20;;;;;;;19.40;16.67;;;;;;;;;;5012473;28;20199;-69
2022/04/23 03:32:46;;;;;;;21.70;17.53;;;;;;;;;;5007189;28;20316;-71
2022/04/23 03:35:11;;;;;;;22.00;17.73;;;;;;;;;;5009875;28;20205;-70
2022/04/23 03:37:40;;;;;;;23.03;18.40;;;;;;;;;;5010281;28;20237;-70
2022/04/23 03:40:06;;;;;;;19.90;16.90;;;;;;;;;;5012154;28;20194;-70
2022/04/23 03:42:31;;;;;;;20.20;17.23;;;;;;;;;;5010278;28;20207;-71
2022/04/23 03:44:56;;;;;;;21.77;18.63;;;;;;;;;;5008385;28;20170;-72
2022/04/23 03:47:23;;;;;;;21.37;17.60;;;;;;;;;;5011786;28;20190;-71
2022/04/23 03:49:48;;;;;;;19.90;17.67;;;;;;;;;;5012704;28;20237;-71
2022/04/23 03:52:13;;;;;;;21.97;18.37;;;;;;;;;;5011934;28;20656;-70
2022/04/23 03:54:38;;;;;;;21.30;17.80;;;;;;;;;;5011063;28;20683;-70
2022/04/23 03:57:04;;;;;;;21.70;18.53;;;;;;;;;;5011997;28;20224;-69
2022/04/23 03:59:30;;;;;;;20.23;17.67;;;;;;;;;;5009151;28;20191;-72
2022/04/23 04:01:56;;;;;;;24.90;19.37;;;;;;;;;;5010504;28;20210;-71
2022/04/23 04:04:21;;;;;;;22.53;19.37;;;;;;;;;;5009126;28;20278;-71
2022/04/23 04:06:46;;;;;;;22.17;18.97;;;;;;;;;;5009758;28;20175;-71
2022/04/23 04:09:12;;;;;;;23.67;20.00;;;;;;;;;;5008600;28;20274;-69
2022/04/23 04:14:21;;;;;;;23.60;19.23;;;;;;;;;;5010178;28;20563;-71
2022/04/23 04:16:46;;;;;;;21.70;19.40;;;;;;;;;;5009816;28;20269;-71
2022/04/23 04:19:14;;;;;;;23.13;19.43;;;;;;;;;;5011044;28;20182;-71
2022/04/23 04:21:39;;;;;;;20.90;18.20;;;;;;;;;;5011355;28;20202;-72
2022/04/23 04:24:04;;;;;;;25.53;20.30;;;;;;;;;;5009048;28;20178;-71
2022/04/23 04:26:31;;;;;;;25.20;21.00;;;;;;;;;;5010110;28;20225;-71
2022/04/23 04:28:56;;;;;;;27.47;19.93;;;;;;;;;;5010614;28;20175;-69
2022/04/23 04:34:04;;;;;;;23.53;19.53;;;;;;;;;;5010601;28;20190;-72
2022/04/23 04:36:30;;;;;;;25.13;20.47;;;;;;;;;;5010482;28;20187;-69
2022/04/23 04:38:55;;;;;;;25.13;19.80;;;;;;;;;;5004272;28;20265;-69
2022/04/23 04:41:20;;;;;;;26.90;21.90;;;;;;;;;;5010783;28;20201;-69
2022/04/23 04:43:45;;;;;;;26.67;21.23;;;;;;;;;;5007772;28;20619;-73
2022/04/23 04:46:11;;;;;;;28.60;22.50;;;;;;;;;;5011612;28;20640;-69
2022/04/23 04:48:36;;;;;;;27.57;22.10;;;;;;;;;;5004144;28;20270;-71
2022/04/23 04:51:01;;;;;;;26.50;21.60;;;;;;;;;;5010621;28;20684;-72
2022/04/23 04:53:26;;;;;;;24.93;20.63;;;;;;;;;;5011693;28;20189;-71
2022/04/23 04:55:51;;;;;;;27.30;22.17;;;;;;;;;;5013016;28;20601;-71
2022/04/23 04:58:16;;;;;;;27.60;21.77;;;;;;;;;;5013659;28;20178;-71
2022/04/23 05:00:42;;;;;;;24.23;20.77;;;;;;;;;;5014233;28;20692;-69
2022/04/23 05:03:07;;;;;;;25.00;21.37;;;;;;;;;;5014199;28;20242;-71
2022/04/23 05:05:33;;;;;;;24.47;21.57;;;;;;;;;;5014348;28;20285;-72
2022/04/23 05:07:58;;;;;;;24.27;21.67;;;;;;;;;;5011168;28;20179;-69
2022/04/23 05:10:23;;;;;;;27.50;21.83;;;;;;;;;;5011613;28;20285;-71
2022/04/23 05:12:48;;;;;;;31.23;22.50;;;;;;;;;;5012580;28;20175;-70
2022/04/23 05:15:13;;;;;;;26.27;21.10;;;;;;;;;;5013455;28;20187;-71
2022/04/23 05:17:39;;;;;;;26.17;21.03;;;;;;;;;;5013990;28;20219;-70
2022/04/23 05:20:05;;;;;;;27.00;21.50;;;;;;;;;;5014151;28;20683;-71
2022/04/23 05:22:31;;;;;;;27.67;22.37;;;;;;;;;;5015486;28;20216;-71
2022/04/23 05:24:57;;;;;;;27.20;22.77;;;;;;;;;;5007340;28;20184;-70
2022/04/23 05:27:25;;;;;;;29.93;22.27;;;;;;;;;;5014422;28;20179;-70
2022/04/23 05:29:50;;;;;;;25.33;22.23;;;;;;;;;;5013747;28;20214;-70
2022/04/23 05:32:15;;;;;;;24.93;20.63;;;;;;;;;;5011504;28;20276;-70
2022/04/23 05:34:40;;;;;;;26.93;22.00;;;;;;;;;;5013266;28;20202;-71
2022/04/23 05:37:06;;;;;;;26.10;22.50;;;;;;;;;;5013609;28;20230;-71
2022/04/23 05:39:32;;;;;;;26.23;21.73;;;;;;;;;;5010729;28;20180;-68
2022/04/23 05:41:57;;;;;;;28.80;22.30;;;;;;;;;;5005983;28;20208;-71
2022/04/23 05:44:22;;;;;;;26.33;21.93;;;;;;;;;;5011348;28;20221;-71
2022/04/23 05:46:47;;;;;;;25.90;21.90;;;;;;;;;;5011423;28;20558;-69
2022/04/23 05:49:12;;;;;;;23.40;20.90;;;;;;;;;;5011757;28;20270;-71
2022/04/23 05:51:37;;;;;;;26.43;22.03;;;;;;;;;;5013584;28;20195;-70
2022/04/23 05:54:03;;;;;;;25.13;20.57;;;;;;;;;;5013185;28;20258;-70
2022/04/23 05:56:28;;;;;;;25.37;21.67;;;;;;;;;;5013559;28;20183;-70
2022/04/23 05:58:53;;;;;;;26.83;22.57;;;;;;;;;;5013590;28;20216;-71
2022/04/23 06:01:18;;;;;;;25.50;21.17;;;;;;;;;;5012209;28;20207;-72
2022/04/23 06:03:44;;;;;;;24.57;21.00;;;;;;;;;;5011893;28;20651;-70
2022/04/23 06:06:09;;;;;;;23.77;21.17;;;;;;;;;;5014539;28;20184;-71
2022/04/23 06:08:34;;;;;;;23.73;21.23;;;;;;;;;;5013170;28;20245;-71
2022/04/23 06:11:00;;;;;;;25.30;20.07;;;;;;;;;;5007162;28;20206;-68
2022/04/23 06:13:25;;;;;;;22.23;19.93;;;;;;;;;;5007152;28;20237;-71
2022/04/23 06:15:50;;;;;;;24.30;20.23;;;;;;;;;;5011722;28;20564;-69
2022/04/23 06:18:16;;;;;;;22.90;20.53;;;;;;;;;;5006324;28;20183;-70
2022/04/23 06:20:41;;;;;;;23.70;21.10;;;;;;;;;;5005119;28;20213;-70
2022/04/23 06:23:06;;;;;;;22.30;19.43;;;;;;;;;;5018219;28;20198;-72
2022/04/23 06:25:31;;;;;;;21.23;18.90;;;;;;;;;;5012059;28;20657;-70
2022/04/23 06:27:57;;;;;;;22.93;19.07;;;;;;;;;;5006640;28;20671;-70
2022/04/23 06:30:22;;;;;;;22.17;18.07;;;;;;;;;;5013330;28;20191;-70
2022/04/23 06:32:47;;;;;;;23.20;18.60;;;;;;;;;;5005125;28;20179;-71
2022/04/23 06:35:12;;;;;;;22.87;18.27;;;;;;;;;;5011859;28;20205;-72
2022/04/23 06:37:38;;;;;;;20.60;18.40;;;;;;;;;;5012450;28;20187;-71
2022/04/23 06:40:04;;;;;;;22.57;18.93;;;;;;;;;;5012533;28;20670;-71
2022/04/23 06:42:29;;;;;;;21.40;18.53;;;;;;;;;;5014069;28;20236;-71
2022/04/23 06:44:54;;;;;;;19.63;17.63;;;;;;;;;;5014053;28;20167;-71
2022/04/23 06:47:19;;;;;;;19.33;17.30;;;;;;;;;;5014355;28;20186;-69
2022/04/23 06:49:45;;;;;;;19.45;17.45;;;;;;;;;;5024582;28;20405;-70
2022/04/23 06:52:10;;;;;;;19.35;17.42;;;;;;;;;;5014118;28;20781;-70
2022/04/23 06:54:35;;;;;;;17.92;16.13;;;;;;;;;;5008092;28;20657;-71
2022/04/23 06:57:00;;;;;;;19.30;17.30;;;;;;;;;;5003962;28;20187;-71
2022/04/23 06:59:26;;;;;;;18.25;16.40;;;;;;;;;;5011721;28;20437;-71
2022/04/23 07:01:51;;;;;;;19.30;17.13;;;;;;;;;;5008168;28;20214;-71
2022/04/23 07:04:16;;;;;;;18.75;16.85;;;;;;;;;;5013486;28;20182;-71
2022/04/23 07:06:41;;;;;;;18.35;16.40;;;;;;;;;;5010887;28;20657;-71
2022/04/23 07:09:07;;;;;;;18.95;17.00;;;;;;;;;;5012179;28;20182;-71
2022/04/23 07:11:32;;;;;;;18.60;16.80;;;;;;;;;;5011967;28;20202;-71
2022/04/23 07:13:57;;;;;;;17.92;16.13;;;;;;;;;;5010723;28;20187;-69
2022/04/23 07:16:22;;;;;;;17.75;14.93;;;;;;;;;;5012598;28;20210;-70
2022/04/23 07:18:47;;;;;;;18.63;16.43;;;;;;;;;;5012971;28;20225;-71
2022/04/23 07:21:13;;;;;;;18.83;16.83;;;;;;;;;;5013072;28;20495;-70
2022/04/23 07:26:22;;;;;;;17.77;15.52;;;;;;;;;;5033094;28;20186;-69
2022/04/23 07:28:48;;;;;;;18.27;16.38;;;;;;;;;;5032649;28;20162;-70
2022/04/23 07:31:13;;;;;;;19.40;15.68;;;;;;;;;;5032782;28;20248;-69
2022/04/23 07:39:06;;;;;;;16.50;14.90;;;;;;;;;;5012523;28;20727;-69
2022/04/23 07:41:31;;;;;;;17.02;15.32;;;;;;;;;;5012892;28;20206;-70
2022/04/23 07:43:56;;;;;;;17.60;15.83;;;;;;;;;;5013015;28;20182;-70
2022/04/23 07:46:21;;;;;;;19.42;17.52;;;;;;;;;;5012717;28;20408;-69
2022/04/23 07:48:46;;;;;;;16.90;15.10;;;;;;;;;;5014971;28;20182;-69
2022/04/23 07:51:12;;;;;;;16.92;15.23;;;;;;;;;;5012701;28;20222;-69
2022/04/23 07:53:37;;;;;;;16.83;15.23;;;;;;;;;;5012586;28;20175;-69
2022/04/23 07:56:02;;;;;;;16.58;14.95;;;;;;;;;;5012621;28;20171;-70
2022/04/23 07:58:27;;;;;;;18.80;15.70;;;;;;;;;;5012171;28;20240;-70
2022/04/23 08:00:53;;;;;;;17.38;15.52;;;;;;;;;;5012137;28;20604;-70
2022/04/23 08:03:18;;;;;;;17.80;15.70;;;;;;;;;;4994781;28;20206;-70
2022/04/23 08:05:43;;;;;;;17.13;15.35;;;;;;;;;;5012090;28;20278;-71
2022/04/23 08:08:08;;;;;;;16.67;15.07;;;;;;;;;;5011937;28;20641;-71
2022/04/23 08:10:34;;;;;;;17.63;15.82;;;;;;;;;;5012277;28;20471;-70
2022/04/23 08:12:59;;;;;;;16.83;15.13;;;;;;;;;;5017932;28;20553;-70
2022/04/23 08:15:26;;;;;;;16.33;14.67;;;;;;;;;;5023717;28;20175;-68
2022/04/23 08:17:51;;;;;;;16.88;15.27;;;;;;;;;;5029933;28;20503;-71
2022/04/23 08:20:16;;;;;;;17.10;15.30;;;;;;;;;;5010203;28;20293;-69
2022/04/23 08:22:41;;;;;;;16.15;14.60;;;;;;;;;;5020625;28;20680;-71
2022/04/23 08:25:07;;;;;;;16.65;14.93;;;;;;;;;;5015073;28;20205;-70
2022/04/23 08:27:51;;;;;;;16.27;14.57;;;;;;;;;;5021941;28;20174;-70
2022/04/23 08:30:36;;;;;;;15.27;13.82;;;;;;;;;;5011808;28;20399;-70
2022/04/23 08:33:05;;;;;;;16.67;14.98;;;;;;;;;;5012277;28;20566;-71
2022/04/23 08:35:30;;;;;;;16.65;15.00;;;;;;;;;;5012132;28;20181;-71
2022/04/23 08:37:55;;;;;;;16.05;14.55;;;;;;;;;;5011496;28;20530;-69
2022/04/23 08:40:21;;;;;;;16.67;14.93;;;;;;;;;;5012023;28;20194;-69
2022/04/23 08:42:46;;;;;;;15.57;14.02;;;;;;;;;;5011718;28;20672;-69
2022/04/23 08:45:12;;;;;;;16.87;15.03;;;;;;;;;;4995838;28;20211;-69
2022/04/23 08:47:40;;;;;;;16.25;14.73;;;;;;;;;;4991864;28;20390;-69
2022/04/23 08:50:08;;;;;;;16.10;14.50;;;;;;;;;;5023405;28;20202;-71
2022/04/23 08:52:33;;;;;;;15.98;14.18;;;;;;;;;;5011579;28;20167;-69
2022/04/23 08:55:03;;;;;;;16.10;14.30;;;;;;;;;;5011778;28;20183;-70
2022/04/23 08:57:31;;;;;;;20.65;15.07;;;;;;;;;;5010698;28;20190;-69
2022/04/23 08:59:56;;;;;;;16.38;14.68;;;;;;;;;;5010235;28;20195;-70
2022/04/23 09:02:22;;;;;;;16.98;15.27;;;;;;;;;;5012021;28;20237;-70
2022/04/23 09:04:48;;;;;;;17.02;14.05;;;;;;;;;;5011952;28;20170;-69
2022/04/23 09:07:18;;;;;;;16.83;14.45;;;;;;;;;;5012143;28;20250;-70
2022/04/23 09:09:46;;;;;;;16.15;14.60;;;;;;;;;;5011677;28;20657;-69
2022/04/23 09:12:12;;;;;;;16.50;14.80;;;;;;;;;;5011921;28;20536;-70
2022/04/23 09:14:38;;;;;;;15.40;13.90;;;;;;;;;;5011413;28;20179;-70
2022/04/23 09:25:35;;;;;;;16.17;14.68;;;;;;;;;;5011632;28;20301;-70
2022/04/23 09:28:15;;;;;;;16.27;14.65;;;;;;;;;;5003320;28;20233;-68
2022/04/23 09:30:40;;;;;;;16.15;14.00;;;;;;;;;;5018213;28;20207;-70
2022/04/23 09:33:05;;;;;;;16.33;14.73;;;;;;;;;;5018329;28;20704;-69
2022/04/23 09:35:31;;;;;;;16.87;14.93;;;;;;;;;;5025629;28;20210;-69
2022/04/23 09:38:11;;;;;;;15.68;14.05;;;;;;;;;;5010714;28;20930;-69
2022/04/23 09:40:36;;;;;;;16.58;14.63;;;;;;;;;;5013860;28;20187;-69
2022/04/23 09:43:02;;;;;;;16.48;14.88;;;;;;;;;;5014997;28;20282;-69
2022/04/23 09:45:28;;;;;;;17.10;15.30;;;;;;;;;;5015124;28;20261;-69
2022/04/23 09:47:54;;;;;;;15.85;14.18;;;;;;;;;;5013839;28;20240;-69
2022/04/23 09:50:19;;;;;;;15.75;14.25;;;;;;;;;;5003770;28;20187;-69
2022/04/23 09:52:45;;;;;;;16.97;14.47;;;;;;;;;;5014721;28;20167;-69
2022/04/23 09:55:11;;;;;;;16.63;14.95;;;;;;;;;;5013812;28;20437;-69
2022/04/23 09:57:38;;;;;;;17.17;14.57;;;;;;;;;;5014183;28;20261;-69
2022/04/23 10:00:04;;;;;;;17.63;15.93;;;;;;;;;;5014557;28;20211;-69
2022/04/23 10:02:29;;;;;;;15.60;14.05;;;;;;;;;;5014738;28;20190;-69
2022/04/23 10:04:56;;;;;;;17.45;15.25;;;;;;;;;;5014707;28;20186;-69
2022/04/23 10:07:24;;;;;;;15.60;14.10;;;;;;;;;;5014681;28;20252;-69
2022/04/23 10:09:50;;;;;;;16.45;14.82;;;;;;;;;;5013879;28;20175;-69
2022/04/23 10:12:19;;;;;;;15.38;13.98;;;;;;;;;;5015013;28;20182;-69
2022/04/23 10:15:11;;;;;;;15.07;13.48;;;;;;;;;;5013152;28;20175;-69
2022/04/23 10:17:37;;;;;;;14.68;13.27;;;;;;;;;;5011113;28;20198;-70
2022/04/23 10:20:02;;;;;;;16.90;14.55;;;;;;;;;;5014781;28;20567;-70
2022/04/23 10:22:34;;;;;;;15.77;14.27;;;;;;;;;;5019874;28;20586;-71
2022/04/23 10:25:22;;;;;;;16.20;14.70;;;;;;;;;;5032718;28;20193;-69
2022/04/23 10:27:47;;;;;;;16.52;14.30;;;;;;;;;;5018431;28;20262;-69
2022/04/23 10:30:12;;;;;;;17.75;14.70;;;;;;;;;;5030088;28;20286;-68
2022/04/23 10:32:39;;;;;;;17.02;15.18;;;;;;;;;;5014621;28;20588;-68
2022/04/23 10:35:25;;;;;;;16.15;14.45;;;;;;;;;;5021699;28;20174;-68
2022/04/23 10:37:50;;;;;;;17.05;15.32;;;;;;;;;;5015582;28;20230;-68
2022/04/23 10:40:19;;;;;;;17.27;15.52;;;;;;;;;;5014398;28;20627;-68
2022/04/23 10:43:03;;;;;;;16.60;14.90;;;;;;;;;;4994622;28;20196;-68
2022/04/23 10:45:31;;;;;;;16.70;14.95;;;;;;;;;;5011025;28;20657;-68
2022/04/23 10:48:17;;;;;;;15.80;14.20;;;;;;;;;;5013634;28;20657;-68
2022/04/23 10:50:57;;;;;;;16.42;14.73;;;;;;;;;;5021867;28;20290;-69
2022/04/23 10:53:47;;;;;;;16.33;14.73;;;;;;;;;;5013903;28;20254;-69
2022/04/23 10:56:13;;;;;;;15.90;14.32;;;;;;;;;;5013508;28;20186;-69
2022/04/23 10:58:40;;;;;;;16.42;14.82;;;;;;;;;;5012821;28;20735;-68
2022/04/23 11:01:25;;;;;;;16.48;14.93;;;;;;;;;;5012183;28;20687;-69
2022/04/23 11:03:53;;;;;;;17.05;15.15;;;;;;;;;;5014131;28;20578;-69
2022/04/23 11:12:14;;;;;;;16.58;14.95;;;;;;;;;;5012678;28;20714;-69
2022/04/23 11:12:23;;;;;;;18.05;15.77;;;;;;;;;;5013122;28;20186;-69
2022/04/23 11:14:51;;;;;;;17.85;16.13;;;;;;;;;;5013492;28;20707;-69
2022/04/23 11:17:24;;;;;;;20.55;16.45;;;;;;;;;;5013003;28;20177;-69
2022/04/23 11:19:53;;;;;;;17.65;15.80;;;;;;;;;;5012596;28;20250;-69
2022/04/23 11:22:21;;;;;;;19.23;17.23;;;;;;;;;;5017144;28;20190;-70
2022/04/23 11:24:51;;;;;;;17.63;15.75;;;;;;;;;;5033008;28;20173;-69
2022/04/23 11:27:26;;;;;;;16.88;15.27;;;;;;;;;;5031627;28;20675;-69
2022/04/23 11:29:52;;;;;;;17.17;15.23;;;;;;;;;;5026819;28;20268;-69
2022/04/23 11:32:23;;;;;;;19.02;15.75;;;;;;;;;;5012924;28;20752;-69
2022/04/23 11:35:15;;;;;;;17.55;15.85;;;;;;;;;;5013924;28;20641;-68
2022/04/23 11:37:40;;;;;;;17.90;16.00;;;;;;;;;;5009728;28;20210;-69
2022/04/23 11:40:09;;;;;;;19.02;17.02;;;;;;;;;;5011153;28;20668;-69
2022/04/23 11:42:41;;;;;;;17.42;15.63;;;;;;;;;;5019478;28;20207;-68
2022/04/23 11:45:07;;;;;;;16.83;15.13;;;;;;;;;;5019199;28;20296;-69
2022/04/23 11:47:33;;;;;;;16.70;15.00;;;;;;;;;;5019368;28;20216;-68
2022/04/23 11:50:08;;;;;;;19.13;15.23;;;;;;;;;;5017915;28;20186;-69
2022/04/23 11:52:33;;;;;;;17.13;14.90;;;;;;;;;;5012345;28;20182;-69
2022/04/23 11:54:59;;;;;;;16.13;14.20;;;;;;;;;;5012725;28;20179;-70
2022/04/23 11:57:24;;;;;;;16.95;15.10;;;;;;;;;;5012291;28;20203;-68
2022/04/23 11:59:52;;;;;;;16.05;14.35;;;;;;;;;;5011864;28;20214;-69
2022/04/23 12:02:23;;;;;;;14.55;12.90;;;;;;;;;;5011933;28;20203;-70
2022/04/23 12:04:49;;;;;;;16.40;14.70;;;;;;;;;;5012408;28;20167;-68
2022/04/23 12:07:15;;;;;;;15.68;14.15;;;;;;;;;;5012256;28;20198;-68
2022/04/23 12:09:50;;;;;;;15.85;14.32;;;;;;;;;;5011875;28;20182;-68
2022/04/23 12:12:19;;;;;;;16.90;13.38;;;;;;;;;;5012390;28;20652;-68
2022/04/23 12:14:45;;;;;;;16.67;14.93;;;;;;;;;;5012128;28;20652;-68
2022/04/23 12:17:11;;;;;;;15.43;13.93;;;;;;;;;;5010832;28;20175;-68
2022/04/23 12:19:36;;;;;;;16.20;14.43;;;;;;;;;;5011555;28;20659;-70
2022/04/23 12:22:01;;;;;;;17.33;15.55;;;;;;;;;;5013948;28;20218;-68
2022/04/23 12:24:34;;;;;;;16.35;14.55;;;;;;;;;;5030528;28;20170;-68
2022/04/23 12:27:03;;;;;;;18.95;15.30;;;;;;;;;;5032166;28;20193;-68
2022/04/23 12:40:44;;;;;;;17.33;14.77;;;;;;;;;;5023128;28;20197;-69
2022/04/23 12:43:22;;;;;;;18.77;15.35;;;;;;;;;;5027950;28;20588;-69
2022/04/23 12:45:48;;;;;;;17.67;15.70;;;;;;;;;;5011773;28;20189;-69
2022/04/23 12:48:14;;;;;;;15.90;14.40;;;;;;;;;;5018122;28;20179;-71
2022/04/23 12:50:39;;;;;;;17.50;14.82;;;;;;;;;;5014450;28;20186;-69
2022/04/23 12:53:05;;;;;;;15.85;14.27;;;;;;;;;;5031024;28;20178;-70
2022/04/23 12:55:36;;;;;;;18.17;15.05;;;;;;;;;;5014102;28;20178;-69
2022/04/23 12:58:08;;;;;;;18.25;16.15;;;;;;;;;;5010827;28;20397;-67
2022/04/23 13:00:35;;;;;;;17.52;15.80;;;;;;;;;;5011631;28;20210;-68
2022/04/23 13:03:11;;;;;;;16.60;15.00;;;;;;;;;;5011345;28;20575;-68
2022/04/23 13:05:36;;;;;;;17.55;15.82;;;;;;;;;;5011698;28;20167;-67
2022/04/23 13:10:45;;;;;;;19.77;14.80;;;;;;;;;;5011931;28;20233;-68
2022/04/23 13:13:11;;;;;;;16.85;14.27;;;;;;;;;;5010978;28;20175;-69
2022/04/23 13:15:37;;;;;;;17.15;15.35;;;;;;;;;;5013796;28;20179;-69
2022/04/23 13:18:03;;;;;;;16.80;13.90;;;;;;;;;;5014493;28;20266;-69
2022/04/23 13:20:28;;;;;;;16.55;14.65;;;;;;;;;;5015008;28;20198;-69
2022/04/23 13:22:53;;;;;;;16.58;14.93;;;;;;;;;;5023359;28;20194;-69
2022/04/23 13:25:19;;;;;;;22.60;14.82;;;;;;;;;;5034759;28;20557;-69
2022/04/23 13:27:44;;;;;;;15.60;13.90;;;;;;;;;;5034140;28;20672;-68
2022/04/23 13:30:10;;;;;;;16.10;13.57;;;;;;;;;;5018356;28;20206;-69
2022/04/23 13:32:37;;;;;;;16.60;14.90;;;;;;;;;;5015205;28;20917;-68
2022/04/23 13:35:03;;;;;;;17.23;14.43;;;;;;;;;;5013832;28;20183;-69
2022/04/23 13:37:28;;;;;;;15.73;13.85;;;;;;;;;;5014859;28;20182;-68
2022/04/23 13:39:53;;;;;;;15.63;13.90;;;;;;;;;;5014606;28;20182;-68
2022/04/23 13:42:18;;;;;;;15.57;13.80;;;;;;;;;;5014865;28;20973;-67
2022/04/23 13:44:44;;;;;;;16.58;14.82;;;;;;;;;;5026262;28;20203;-68
2022/04/23 13:47:10;;;;;;;15.20;13.60;;;;;;;;;;5018593;28;20641;-69
2022/04/23 13:49:35;;;;;;;16.23;13.95;;;;;;;;;;5023419;28;20201;-69
2022/04/23 13:52:01;;;;;;;15.95;14.35;;;;;;;;;;5022099;28;20199;-69
2022/04/23 13:54:26;;;;;;;15.60;13.98;;;;;;;;;;5023967;28;20262;-69
2022/04/23 13:56:51;;;;;;;20.10;14.57;;;;;;;;;;5033565;28;20630;-69
2022/04/23 13:59:16;;;;;;;17.75;13.55;;;;;;;;;;5018284;28;20419;-69
2022/04/23 14:10:04;;;;;;;15.07;13.57;;;;;;;;;;5014518;28;20639;-70
2022/04/23 14:10:04;;;;;;;14.70;13.20;;;;;;;;;;5013995;28;20690;-69
2022/04/23 14:12:29;;;;;;;14.93;13.32;;;;;;;;;;5014539;28;20174;-70
2022/04/23 14:14:54;;;;;;;14.60;12.90;;;;;;;;;;5014373;28;20325;-69
2022/04/23 14:17:19;;;;;;;14.63;13.13;;;;;;;;;;5014512;28;20416;-69
2022/04/23 14:19:45;;;;;;;15.23;13.60;;;;;;;;;;5013559;28;20404;-68
2022/04/23 14:22:10;;;;;;;13.93;11.93;;;;;;;;;;5017974;28;20447;-69
2022/04/23 14:24:35;;;;;;;13.82;12.30;;;;;;;;;;5034489;28;20173;-69
2022/04/23 14:27:00;;;;;;;14.98;13.45;;;;;;;;;;5032564;28;20576;-68
2022/04/23 14:29:26;;;;;;;14.52;13.02;;;;;;;;;;5018785;28;20641;-68
2022/04/23 14:31:51;;;;;;;14.57;12.88;;;;;;;;;;5025686;28;20194;-69
2022/04/23 14:34:16;;;;;;;13.25;11.82;;;;;;;;;;5033773;28;20170;-69
2022/04/23 14:36:42;;;;;;;15.00;11.98;;;;;;;;;;5018686;28;20183;-69
2022/04/23 14:39:07;;;;;;;13.98;12.65;;;;;;;;;;5013107;28;20171;-69
2022/04/23 14:41:32;;;;;;;15.25;12.57;;;;;;;;;;5013932;28;20688;-69
2022/04/23 14:43:57;;;;;;;14.60;13.05;;;;;;;;;;5013144;28;20168;-70
2022/04/23 14:46:23;;;;;;;14.13;12.83;;;;;;;;;;5013564;28;20163;-68
2022/04/23 14:48:48;;;;;;;14.25;12.88;;;;;;;;;;5018825;28;20971;-68
2022/04/23 14:53:57;;;;;;;16.00;11.30;;;;;;;;;;4998582;28;20439;-69
2022/04/23 14:56:22;;;;;;;12.50;11.13;;;;;;;;;;5021526;28;20641;-68
2022/04/23 14:58:47;;;;;;;12.60;11.30;;;;;;;;;;5018728;28;20424;-68
2022/04/23 15:01:12;;;;;;;13.18;11.77;;;;;;;;;;5023403;28;20495;-68
2022/04/23 15:03:38;;;;;;;14.70;12.50;;;;;;;;;;5025172;28;20671;-70